createdAt,value
2023-10-26T00:07:22.295Z,10.53
2023-10-26T00:17:22.885Z,10.60
2023-10-26T00:27:23.470Z,10.55
2023-10-26T00:37:24.027Z,10.42
2023-10-26T00:47:24.609Z,10.44
2023-10-26T00:57:25.212Z,10.40
2023-10-26T01:07:25.768Z,10.30
2023-10-26T01:17:26.360Z,10.25
2023-10-26T01:27:26.912Z,10.20
2023-10-26T01:37:27.520Z,10.23
2023-10-26T01:47:28.062Z,10.32
2023-10-26T01:57:28.632Z,10.22
2023-10-26T02:07:29.181Z,10.30
2023-10-26T02:17:29.747Z,10.30
2023-10-26T02:27:30.339Z,10.32
2023-10-26T02:37:30.842Z,10.36
2023-10-26T02:47:31.409Z,10.32
2023-10-26T02:57:31.960Z,10.29
2023-10-26T03:07:32.481Z,10.34
2023-10-26T03:17:33.046Z,10.34
2023-10-26T03:27:33.568Z,10.30
2023-10-26T03:37:34.137Z,10.29
2023-10-26T03:47:34.717Z,10.36
2023-10-26T03:57:35.278Z,10.44
2023-10-26T04:07:35.791Z,10.48
2023-10-26T04:17:36.382Z,10.52
2023-10-26T04:27:36.918Z,10.48
2023-10-26T04:37:37.489Z,10.40
2023-10-26T04:47:45.061Z,10.34
2023-10-26T04:57:38.609Z,10.29
2023-10-26T05:07:39.104Z,10.14
2023-10-26T05:17:39.759Z,10.17
2023-10-26T05:27:40.130Z,10.04
2023-10-26T05:37:40.690Z,10.05
2023-10-26T05:47:41.228Z,10.02
2023-10-26T05:57:41.750Z,10.01
2023-10-26T06:07:42.205Z,10.04
2023-10-26T06:17:42.788Z,10.02
2023-10-26T06:27:43.214Z,10.01
2023-10-26T06:37:43.718Z,10.04
2023-10-26T06:47:44.232Z,10.01
2023-10-26T06:57:44.748Z,10.02
2023-10-26T07:07:45.243Z,10.05
2023-10-26T07:17:45.879Z,10.07
2023-10-26T07:27:46.326Z,10.12
2023-10-26T07:37:55.009Z,10.22
2023-10-26T07:47:48.241Z,10.25
2023-10-26T07:57:47.753Z,10.25
2023-10-26T08:07:48.317Z,10.33
2023-10-26T08:17:48.961Z,10.34
2023-10-26T08:27:49.918Z,10.45
2023-10-26T08:37:50.455Z,10.52
2023-10-26T08:47:50.919Z,10.53
2023-10-26T08:57:51.511Z,10.60
2023-10-26T09:07:52.189Z,10.84
2023-10-26T09:17:52.733Z,10.97
2023-10-26T09:27:53.204Z,10.91
2023-10-26T09:37:53.750Z,10.79
2023-10-26T09:47:54.541Z,10.92
2023-10-26T09:57:55.067Z,10.99
2023-10-26T10:07:55.065Z,11.22
2023-10-26T10:17:55.662Z,11.25
2023-10-26T10:27:56.220Z,11.21
2023-10-26T10:37:56.716Z,11.06
2023-10-26T10:48:04.195Z,11.04
2023-10-26T10:57:57.856Z,11.15
2023-10-26T11:07:58.435Z,11.17
2023-10-26T11:17:59.164Z,11.10
2023-10-26T11:27:59.716Z,11.17
2023-10-26T11:38:00.283Z,11.22
2023-10-26T11:48:00.733Z,11.25
2023-10-26T11:58:01.392Z,11.46
2023-10-26T12:08:01.858Z,11.46
2023-10-26T12:18:02.669Z,11.60
2023-10-26T12:28:20.034Z,11.72
2023-10-26T12:38:05.117Z,11.60
2023-10-26T12:48:04.594Z,11.46
2023-10-26T12:58:05.219Z,11.65
2023-10-26T13:08:05.681Z,11.65
2023-10-26T13:18:06.299Z,11.51
2023-10-26T13:28:06.793Z,11.64
2023-10-26T13:38:07.380Z,11.83
2023-10-26T13:48:07.887Z,11.62
2023-10-26T13:58:08.500Z,11.60
2023-10-26T14:08:08.918Z,11.58
2023-10-26T14:18:09.537Z,11.69
2023-10-26T14:28:09.973Z,11.67
2023-10-26T14:38:10.579Z,11.57
2023-10-26T14:48:11.009Z,11.54
2023-10-26T14:58:11.621Z,11.58
2023-10-26T15:08:12.049Z,11.64
2023-10-26T15:18:12.668Z,11.60
2023-10-26T15:28:13.144Z,11.57
2023-10-26T15:38:13.723Z,11.35
2023-10-26T15:48:14.158Z,11.33
2023-10-26T15:58:14.829Z,11.40
2023-10-26T16:08:15.300Z,11.36
2023-10-26T16:18:15.963Z,11.36
2023-10-26T16:28:16.464Z,11.32
2023-10-26T16:38:17.103Z,11.28
2023-10-26T16:48:24.647Z,11.29
2023-10-26T16:58:18.265Z,11.24
2023-10-26T17:08:18.799Z,11.25
2023-10-26T17:18:19.425Z,11.29
2023-10-26T17:28:19.902Z,11.24
2023-10-26T17:38:20.569Z,11.27
2023-10-26T17:48:21.052Z,11.22
2023-10-26T17:58:21.718Z,11.04
2023-10-26T18:08:22.238Z,11.04
2023-10-26T18:18:22.901Z,10.96
2023-10-26T18:28:23.383Z,10.92
2023-10-26T18:38:24.025Z,10.97
2023-10-26T18:48:24.531Z,10.97
2023-10-26T18:58:25.180Z,11.00
2023-10-26T19:08:25.664Z,11.00
2023-10-26T19:18:26.472Z,11.02
2023-10-26T19:28:27.037Z,10.97
2023-10-26T19:38:27.707Z,11.06
2023-10-26T19:48:28.271Z,11.02
2023-10-26T19:58:29.755Z,11.04
2023-10-26T20:08:29.239Z,11.07
2023-10-26T20:18:29.912Z,11.06
2023-10-26T20:28:30.480Z,11.11
2023-10-26T20:38:31.173Z,11.03
2023-10-26T20:48:31.678Z,10.92
2023-10-26T20:58:32.324Z,10.96
2023-10-26T21:08:32.824Z,10.97
2023-10-26T21:18:33.484Z,10.94
2023-10-26T21:28:34.010Z,10.89
2023-10-26T21:38:34.656Z,10.88
2023-10-26T21:48:35.170Z,10.96
2023-10-26T21:58:35.793Z,10.99
2023-10-26T22:08:36.266Z,11.06
2023-10-26T22:18:36.931Z,11.03
2023-10-26T22:28:37.438Z,11.14
2023-10-26T22:38:38.089Z,11.17
2023-10-26T22:48:45.660Z,11.10
2023-10-26T22:58:39.333Z,11.04
2023-10-26T23:08:39.824Z,10.94
2023-10-26T23:18:40.577Z,10.92
2023-10-26T23:28:41.100Z,10.92
2023-10-26T23:38:41.768Z,10.94
2023-10-26T23:48:42.309Z,10.99
2023-10-26T23:58:43.018Z,10.86
